Time;durP1;ratioP1;P1;durP2;ratioP2;P2;SDS_P1;SDS_P2;PMS_P1;PMS_P2;Temp;Humidity;BMP_temperature;BMP_pressure;BME280_temperature;BME280_humidity;BME280_pressure;Samples;Min_cycle;Max_cycle;Signal;HPM_P1;HPM_P2
2023/01/04 00:00:43;;;;;;;16.77;11.93;;;4.20;26.70;;;;;;7382503;19;20081;-76
2023/01/04 00:03:13;;;;;;;17.60;11.80;;;4.20;26.60;;;;;;7356783;19;20011;-77
2023/01/04 00:05:43;;;;;;;16.55;12.18;;;4.10;26.60;;;;;;7357677;19;20476;-76
2023/01/04 00:08:15;;;;;;;19.73;12.52;;;4.10;27.00;;;;;;7357544;19;20010;-77
2023/01/04 00:10:45;;;;;;;20.77;12.57;;;4.10;26.90;;;;;;7360225;19;20014;-76
2023/01/04 00:13:15;;;;;;;16.67;12.27;;;4.10;27.20;;;;;;7356987;19;21324;-76
2023/01/04 00:15:45;;;;;;;14.57;11.85;;;4.10;27.10;;;;;;7378850;19;20018;-76
2023/01/04 00:18:14;;;;;;;19.05;12.00;;;4.00;27.20;;;;;;7356460;19;20089;-77
2023/01/04 00:20:44;;;;;;;16.20;11.52;;;4.00;27.30;;;;;;7360621;19;20017;-76
2023/01/04 00:23:17;;;;;;;18.30;13.02;;;4.10;27.80;;;;;;7356786;19;20006;-77
2023/01/04 00:25:47;;;;;;;20.13;11.73;;;4.00;27.40;;;;;;7357402;19;20432;-77
2023/01/04 00:28:17;;;;;;;14.75;11.85;;;3.90;27.90;;;;;;7356615;19;20048;-77
2023/01/04 00:30:47;;;;;;;18.20;12.63;;;4.00;29.10;;;;;;7384243;19;20010;-76
2023/01/04 00:33:17;;;;;;;18.20;12.77;;;4.00;28.50;;;;;;7363795;19;20086;-77
2023/01/04 00:35:47;;;;;;;18.88;12.73;;;3.90;28.30;;;;;;7365673;19;20384;-77
2023/01/04 00:38:19;;;;;;;17.70;12.88;;;3.90;28.70;;;;;;7363060;19;20006;-77
2023/01/04 00:40:49;;;;;;;19.15;12.77;;;3.90;28.70;;;;;;7366465;19;20014;-77
2023/01/04 00:43:19;;;;;;;17.63;13.20;;;3.90;29.10;;;;;;7363962;19;20013;-77
2023/01/04 00:45:49;;;;;;;18.40;12.50;;;3.90;29.10;;;;;;7385883;19;20035;-76
2023/01/04 00:48:19;;;;;;;17.10;13.20;;;3.90;29.10;;;;;;7362832;19;20039;-77
2023/01/04 00:50:49;;;;;;;19.08;12.98;;;3.80;28.80;;;;;;7366604;19;20013;-77
2023/01/04 00:53:22;;;;;;;20.35;13.05;;;3.80;29.00;;;;;;7363229;19;20039;-77
2023/01/04 00:55:52;;;;;;;16.33;12.75;;;3.80;29.00;;;;;;7363182;19;20494;-77
2023/01/04 00:58:21;;;;;;;15.07;12.18;;;3.80;28.90;;;;;;7362706;19;20014;-77
2023/01/04 01:00:57;;;;;;;16.35;12.90;;;3.80;29.10;;;;;;7388232;19;20082;-77
2023/01/04 01:03:26;;;;;;;20.17;13.65;;;3.70;29.00;;;;;;7363132;19;20046;-77
2023/01/04 01:06:03;;;;;;;17.08;12.88;;;3.70;29.20;;;;;;7360585;19;20027;-76
2023/01/04 01:08:37;;;;;;;17.98;12.63;;;3.70;29.40;;;;;;7362975;19;20022;-77
2023/01/04 01:11:09;;;;;;;18.43;13.00;;;3.80;29.00;;;;;;7364704;19;20493;-77
2023/01/04 01:13:40;;;;;;;20.50;11.98;;;3.80;29.00;;;;;;7362871;19;20257;-77
2023/01/04 01:16:12;;;;;;;18.02;12.95;;;3.80;29.00;;;;;;7359801;19;20017;-76
2023/01/04 01:18:44;;;;;;;16.05;11.70;;;3.70;28.90;;;;;;7385823;19;20014;-76
2023/01/04 01:21:16;;;;;;;15.63;12.00;;;3.70;28.90;;;;;;7365453;19;20007;-76
2023/01/04 01:23:49;;;;;;;16.55;12.35;;;3.80;29.00;;;;;;7362912;19;20751;-77
2023/01/04 01:26:21;;;;;;;17.38;12.15;;;3.80;28.50;;;;;;7359356;19;20018;-75
2023/01/04 01:28:51;;;;;;;15.98;11.65;;;3.80;28.10;;;;;;7363835;19;20037;-76
2023/01/04 01:31:23;;;;;;;17.60;12.05;;;3.80;27.80;;;;;;7364964;19;20697;-75
2023/01/04 01:33:55;;;;;;;15.02;11.60;;;3.80;27.90;;;;;;7385102;19;20018;-76
2023/01/04 01:36:27;;;;;;;16.33;11.13;;;3.80;27.60;;;;;;7359450;19;20038;-75
2023/01/04 01:38:59;;;;;;;17.58;11.68;;;3.80;27.10;;;;;;7361859;19;20538;-76
2023/01/04 01:41:31;;;;;;;12.88;10.40;;;3.80;26.90;;;;;;7363913;19;20017;-75
2023/01/04 01:44:03;;;;;;;14.25;11.20;;;3.80;26.90;;;;;;7360885;19;20007;-74
2023/01/04 01:46:38;;;;;;;15.25;10.45;;;3.80;26.30;;;;;;7357639;19;20014;-75
2023/01/04 01:49:15;;;;;;;14.77;11.20;;;3.70;26.20;;;;;;7362353;19;20034;-75
2023/01/04 01:51:45;;;;;;;13.10;10.90;;;3.60;26.40;;;;;;7386419;19;20025;-75
2023/01/04 01:54:25;;;;;;;17.40;11.82;;;3.60;26.90;;;;;;7361661;19;20007;-75
2023/01/04 01:56:59;;;;;;;17.10;10.80;;;3.60;27.30;;;;;;7358560;19;20039;-75
2023/01/04 01:59:30;;;;;;;13.88;11.45;;;3.60;27.40;;;;;;7361985;19;20743;-76
2023/01/04 02:02:00;;;;;;;14.23;11.15;;;3.50;26.90;;;;;;7363635;19;20010;-75
2023/01/04 02:04:30;;;;;;;15.52;11.07;;;3.50;27.30;;;;;;7363718;19;20014;-75
2023/01/04 02:07:01;;;;;;;16.17;11.85;;;3.40;27.20;;;;;;7380407;19;20018;-75
2023/01/04 02:09:34;;;;;;;15.68;11.02;;;3.50;27.50;;;;;;7361230;19;20386;-74
2023/01/04 02:12:05;;;;;;;14.90;10.23;;;3.40;27.20;;;;;;7363665;19;20017;-75
2023/01/04 02:14:35;;;;;;;14.48;10.68;;;3.40;27.80;;;;;;7363568;19;20010;-75
2023/01/04 02:17:12;;;;;;;15.00;11.63;;;3.30;27.80;;;;;;7359369;19;20011;-77
2023/01/04 02:20:05;;;;;;;14.23;10.60;;;3.40;28.00;;;;;;7361022;19;20438;-76
2023/01/04 02:23:04;;;;;;;16.73;11.18;;;3.30;28.20;;;;;;7361267;19;20007;-76
2023/01/04 02:25:57;;;;;;;16.42;10.60;;;3.30;28.70;;;;;;7361307;19;20015;-76
2023/01/04 02:28:45;;;;;;;15.55;11.60;;;3.30;28.60;;;;;;7358761;19;20129;-76
2023/01/04 02:31:31;;;;;;;15.38;11.70;;;3.30;28.50;;;;;;7363660;19;20078;-74
2023/01/04 02:34:09;;;;;;;15.07;10.55;;;3.30;28.60;;;;;;7383191;19;20014;-75
2023/01/04 02:36:46;;;;;;;15.65;11.57;;;3.30;28.60;;;;;;7357548;19;20007;-76
2023/01/04 02:39:24;;;;;;;15.30;11.63;;;3.40;28.70;;;;;;7360062;19;20798;-76
2023/01/04 02:42:00;;;;;;;15.32;11.18;;;3.40;28.40;;;;;;7362062;19;20095;-75
2023/01/04 02:50:29;;;;;;;15.50;11.57;;;3.30;28.40;;;;;;7357278;19;20343;-76
2023/01/04 02:50:30;;;;;;;18.80;11.20;;;3.30;28.70;;;;;;7359881;19;20517;-76
2023/01/04 02:53:03;;;;;;;19.27;11.68;;;3.30;28.70;;;;;;7360245;19;20013;-76
2023/01/04 02:55:42;;;;;;;15.48;11.20;;;3.30;28.60;;;;;;7360584;19;20062;-76
2023/01/04 02:58:23;;;;;;;14.43;10.63;;;3.20;28.60;;;;;;7358423;19;20006;-77
2023/01/04 03:06:45;;;;;;;16.60;11.20;;;3.20;28.90;;;;;;7356652;19;20072;-76
2023/01/04 03:09:20;;;;;;;14.88;10.77;;;3.30;29.10;;;;;;7359522;19;20041;-76
2023/01/04 03:14:45;;;;;;;13.85;11.02;;;3.30;29.30;;;;;;7363013;19;20070;-76
2023/01/04 03:17:17;;;;;;;15.15;10.63;;;3.30;28.70;;;;;;7358022;19;20017;-76
2023/01/04 03:19:55;;;;;;;16.27;10.98;;;3.30;28.70;;;;;;7358729;19;20020;-76
2023/01/04 03:36:34;;;;;;;12.95;9.48;;;3.40;28.70;;;;;;7357239;19;20518;-76
2023/01/04 03:50:34;;;;;;;13.50;9.18;;;3.50;28.40;;;;;;7359808;19;20109;-75
2023/01/04 03:53:07;;;;;;;10.90;8.93;;;3.60;28.40;;;;;;7359252;19;20502;-75
2023/01/04 03:55:40;;;;;;;11.55;8.68;;;3.60;27.50;;;;;;7358832;19;20019;-75
2023/01/04 03:58:10;;;;;;;13.13;9.27;;;3.60;26.50;;;;;;7357066;19;20071;-76
2023/01/04 04:00:40;;;;;;;13.35;9.25;;;3.70;25.70;;;;;;7381743;19;20011;-76
2023/01/04 04:03:10;;;;;;;13.35;9.23;;;3.70;25.60;;;;;;7358333;19;20096;-76
2023/01/04 04:08:29;;;;;;;13.88;9.27;;;3.90;24.50;;;;;;7363490;19;20078;-75
2023/01/04 04:11:28;;;;;;;;;;;3.90;24.40;;;;;;7368760;19;20035;-77
2023/01/04 04:13:50;;;;;;;12.63;8.90;;;4.00;24.00;;;;;;7364806;19;19929;-75
2023/01/04 04:16:20;;;;;;;11.40;8.40;;;4.00;22.90;;;;;;7364342;19;20081;-75
2023/01/04 04:18:50;;;;;;;12.10;7.85;;;4.00;22.70;;;;;;7387211;19;20011;-76
2023/01/04 04:21:20;;;;;;;11.70;7.78;;;4.10;22.50;;;;;;7367314;19;20541;-75
2023/01/04 04:23:52;;;;;;;10.45;8.00;;;4.10;22.00;;;;;;7365238;19;20010;-76
2023/01/04 04:26:22;;;;;;;11.48;7.45;;;4.10;21.60;;;;;;7362737;19;20014;-76
2023/01/04 04:28:53;;;;;;;9.98;7.28;;;4.20;21.20;;;;;;7365261;19;20014;-76
2023/01/04 04:31:23;;;;;;;10.63;7.38;;;4.20;20.30;;;;;;7367244;19;20021;-76
2023/01/04 04:33:53;;;;;;;10.63;7.15;;;4.30;19.10;;;;;;7385733;19;20013;-76
2023/01/04 04:36:23;;;;;;;11.23;7.65;;;4.30;19.40;;;;;;7362243;19;20007;-77
2023/01/04 04:38:55;;;;;;;8.80;6.88;;;4.40;19.20;;;;;;7363710;19;20018;-76
2023/01/04 04:41:40;;;;;;;8.77;6.40;;;4.40;18.40;;;;;;7366845;19;20018;-76
2023/01/04 04:44:12;;;;;;;9.30;6.90;;;4.40;18.40;;;;;;7365309;19;20014;-76
2023/01/04 04:46:42;;;;;;;9.23;6.57;;;4.50;17.90;;;;;;7361018;19;20034;-75
2023/01/04 04:49:12;;;;;;;8.55;6.60;;;4.50;17.50;;;;;;7364642;19;20144;-76
2023/01/04 04:51:43;;;;;;;9.77;6.82;;;4.50;17.10;;;;;;7388710;19;20006;-76
2023/01/04 04:54:20;;;;;;;9.80;6.55;;;4.50;17.20;;;;;;7364866;19;20069;-76
2023/01/04 04:56:51;;;;;;;9.68;6.65;;;4.50;17.00;;;;;;7361687;19;20017;-76
2023/01/04 04:59:23;;;;;;;7.10;5.80;;;4.50;16.70;;;;;;7364009;19;20564;-75
2023/01/04 05:01:53;;;;;;;7.32;5.78;;;4.60;16.00;;;;;;7365118;19;20014;-76
2023/01/04 05:04:23;;;;;;;15.18;6.53;;;4.60;15.70;;;;;;7363926;19;20422;-76
2023/01/04 05:06:54;;;;;;;8.60;5.72;;;4.60;15.40;;;;;;7381262;19;20034;-76
2023/01/04 05:09:26;;;;;;;13.00;6.68;;;4.60;15.30;;;;;;7364411;19;20054;-76
2023/01/04 05:14:38;;;;;;;11.60;6.10;;;4.70;14.70;;;;;;7367300;19;20278;-75
2023/01/04 05:17:08;;;;;;;7.18;5.40;;;4.70;15.00;;;;;;7359532;19;20010;-75
2023/01/04 05:19:38;;;;;;;7.53;5.72;;;4.70;14.40;;;;;;7363279;19;20243;-75
2023/01/04 05:22:08;;;;;;;8.35;5.60;;;4.70;14.80;;;;;;7365011;19;20007;-75
2023/01/04 05:24:40;;;;;;;10.50;5.68;;;4.70;14.50;;;;;;7387342;19;20521;-76
2023/01/04 05:27:10;;;;;;;8.52;5.57;;;4.70;14.60;;;;;;7357784;19;20015;-76
2023/01/04 05:32:22;;;;;;;6.38;5.18;;;4.70;14.60;;;;;;7362316;19;20014;-76
2023/01/04 05:34:52;;;;;;;7.93;5.15;;;4.80;14.60;;;;;;7365428;19;20826;-76
2023/01/04 05:37:22;;;;;;;8.43;5.28;;;4.80;14.00;;;;;;7359970;19;20021;-75
2023/01/04 05:39:54;;;;;;;8.18;5.13;;;4.80;13.80;;;;;;7384031;19;20078;-76
2023/01/04 05:42:26;;;;;;;6.68;4.95;;;4.90;13.70;;;;;;7362863;19;20010;-76
2023/01/04 05:44:58;;;;;;;6.07;4.63;;;4.90;13.80;;;;;;7365600;19;20014;-75
2023/01/04 05:47:29;;;;;;;9.07;4.72;;;4.90;13.60;;;;;;7358797;19;20015;-76
2023/01/04 05:49:59;;;;;;;5.03;4.07;;;5.00;13.10;;;;;;7361552;19;20569;-75
2023/01/04 05:52:29;;;;;;;5.28;3.55;;;5.10;13.10;;;;;;7362640;19;20737;-75
2023/01/04 05:55:01;;;;;;;4.10;3.10;;;5.20;12.70;;;;;;7386398;19;20102;-75
2023/01/04 05:57:32;;;;;;;9.82;4.53;;;5.20;11.80;;;;;;7359563;19;20011;-76
2023/01/04 06:00:01;;;;;;;6.43;4.60;;;5.30;11.40;;;;;;7361038;19;20011;-77
2023/01/04 06:02:32;;;;;;;9.20;3.33;;;5.40;10.70;;;;;;7361338;19;20014;-75
2023/01/04 06:05:02;;;;;;;5.35;3.38;;;5.40;10.30;;;;;;7364184;19;20022;-76
2023/01/04 06:07:32;;;;;;;4.63;2.90;;;5.50;9.30;;;;;;7357902;19;20018;-75
2023/01/04 06:10:05;;;;;;;4.90;3.30;;;5.50;9.30;;;;;;7382953;19;20454;-75
2023/01/04 06:12:35;;;;;;;4.72;3.15;;;5.60;9.30;;;;;;7361673;19;20007;-75
2023/01/04 06:15:06;;;;;;;6.05;3.13;;;5.60;9.20;;;;;;7362740;19;20078;-75
2023/01/04 06:17:36;;;;;;;5.20;3.10;;;5.50;9.10;;;;;;7358658;19;20007;-76
2023/01/04 06:20:09;;;;;;;4.55;3.17;;;5.60;8.40;;;;;;7362085;19;20017;-75
2023/01/04 06:22:39;;;;;;;4.32;2.88;;;5.70;7.40;;;;;;7361628;19;20027;-76
2023/01/04 06:25:12;;;;;;;6.43;3.15;;;5.70;7.10;;;;;;7363668;19;20568;-77
2023/01/04 06:27:42;;;;;;;4.45;3.03;;;5.70;7.60;;;;;;7376530;19;20033;-75
2023/01/04 06:30:13;;;;;;;5.05;3.22;;;5.70;7.70;;;;;;7360667;19;20027;-76
2023/01/04 06:32:42;;;;;;;5.78;3.03;;;5.70;7.60;;;;;;7359820;19;20607;-75
2023/01/04 06:35:12;;;;;;;5.03;2.85;;;5.80;7.40;;;;;;7363273;19;20090;-75
2023/01/04 06:37:42;;;;;;;3.28;2.50;;;5.80;6.80;;;;;;7358104;19;20049;-76
2023/01/04 06:40:15;;;;;;;5.40;2.33;;;5.80;7.10;;;;;;7360298;19;20490;-76
2023/01/04 06:42:47;;;;;;;6.38;2.53;;;5.90;7.50;;;;;;7382133;19;20039;-75
2023/01/04 06:45:17;;;;;;;3.15;1.58;;;6.00;6.70;;;;;;7362837;19;20482;-75
2023/01/04 06:47:48;;;;;;;4.95;2.10;;;6.20;6.00;;;;;;7356077;19;20013;-75
2023/01/04 06:50:18;;;;;;;4.25;1.85;;;6.20;5.10;;;;;;7361656;19;20017;-75
2023/01/04 06:52:48;;;;;;;3.30;1.73;;;6.20;5.70;;;;;;7361283;19;20577;-76
2023/01/04 06:55:20;;;;;;;2.17;1.65;;;6.30;5.60;;;;;;7363532;19;20010;-75
2023/01/04 06:57:53;;;;;;;3.33;2.08;;;6.30;6.10;;;;;;7378424;19;20018;-75
2023/01/04 07:00:28;;;;;;;2.47;1.60;;;6.30;5.20;;;;;;7360130;19;20474;-75
2023/01/04 07:02:58;;;;;;;1.67;0.90;;;6.50;2.50;;;;;;7359044;19;20018;-76
2023/01/04 07:05:44;;;;;;;4.50;1.27;;;6.70;1.00;;;;;;7359402;19;20074;-75
2023/01/04 07:08:15;;;;;;;3.78;0.98;;;6.80;1.00;;;;;;7357831;19;20605;-76
2023/01/04 07:10:48;;;;;;;1.75;1.00;;;6.80;1.00;;;;;;7362644;19;20098;-75
2023/01/04 07:13:18;;;;;;;1.52;1.05;;;6.80;1.00;;;;;;7358729;19;20037;-76
2023/01/04 07:15:48;;;;;;;1.70;1.30;;;6.80;1.00;;;;;;7381772;19;20010;-75
2023/01/04 07:18:17;;;;;;;3.22;1.10;;;6.80;1.00;;;;;;7356589;19;20048;-75
2023/01/04 07:20:47;;;;;;;3.08;1.45;;;6.90;1.00;;;;;;7361622;19;20006;-75
2023/01/04 07:23:17;;;;;;;3.13;1.08;;;7.00;1.00;;;;;;7358948;19;20481;-75
2023/01/04 07:25:49;;;;;;;3.83;1.02;;;6.90;1.00;;;;;;7358544;19;20010;-76
2023/01/04 07:29:13;;;;;;;2.25;1.00;;;7.00;1.00;;;;;;7355638;19;20014;-75
2023/01/04 07:31:10;;;;;;;1.95;1.13;;;7.00;1.00;;;;;;7360233;19;20006;-75
2023/01/04 07:33:40;;;;;;;5.30;1.20;;;6.90;1.00;;;;;;7381397;19;20060;-75
2023/01/04 07:36:10;;;;;;;3.13;1.45;;;7.00;1.00;;;;;;7357927;19;20494;-74
2023/01/04 07:38:40;;;;;;;5.35;1.33;;;6.90;1.00;;;;;;7355488;19;20011;-75
2023/01/04 07:41:12;;;;;;;3.92;2.05;;;6.90;1.00;;;;;;7361638;19;20409;-74
2023/01/04 07:43:42;;;;;;;4.57;2.78;;;6.70;3.10;;;;;;7359248;19;20090;-74
2023/01/04 07:46:12;;;;;;;5.72;3.40;;;6.60;5.90;;;;;;7357817;19;20411;-74
2023/01/04 07:48:42;;;;;;;8.27;3.63;;;6.50;9.10;;;;;;7376467;19;20502;-72
2023/01/04 07:51:12;;;;;;;7.55;4.40;;;6.30;13.40;;;;;;7360996;19;20041;-74
2023/01/04 07:53:42;;;;;;;8.02;4.07;;;6.20;14.20;;;;;;7358314;19;20058;-73
2023/01/04 07:56:14;;;;;;;5.97;3.85;;;6.10;15.80;;;;;;7358632;19;20024;-74
2023/01/04 07:58:47;;;;;;;6.07;3.90;;;6.10;18.80;;;;;;7347372;19;20010;-74
2023/01/04 08:01:19;;;;;;;9.27;4.38;;;6.00;20.20;;;;;;7359947;19;20006;-74
2023/01/04 08:03:50;;;;;;;7.10;3.78;;;6.00;20.30;;;;;;7379912;19;20025;-74
2023/01/04 08:06:21;;;;;;;11.40;5.68;;;6.00;20.30;;;;;;7357304;19;20021;-74
2023/01/04 08:08:51;;;;;;;7.10;4.53;;;6.00;21.70;;;;;;7354630;19;20014;-76
2023/01/04 08:11:23;;;;;;;7.18;3.30;;;6.10;20.70;;;;;;7360443;19;20014;-75
2023/01/04 08:13:54;;;;;;;5.88;3.78;;;6.10;21.70;;;;;;7357090;19;20577;-75
2023/01/04 08:16:26;;;;;;;7.38;4.10;;;6.10;22.50;;;;;;7356737;19;20759;-74
2023/01/04 08:18:57;;;;;;;8.02;4.10;;;6.00;22.20;;;;;;7375572;19;20515;-74
2023/01/04 08:21:29;;;;;;;7.15;3.88;;;6.00;21.90;;;;;;7358926;19;20003;-75
2023/01/04 08:23:59;;;;;;;9.30;3.90;;;6.00;22.30;;;;;;7358018;19;20015;-74
2023/01/04 08:26:31;;;;;;;5.20;3.60;;;6.00;22.20;;;;;;7356592;19;20021;-76
2023/01/04 08:29:01;;;;;;;6.10;3.45;;;6.00;23.30;;;;;;7354432;19;20034;-74
2023/01/04 08:31:33;;;;;;;6.47;3.60;;;6.10;22.90;;;;;;7359398;19;20015;-73
2023/01/04 08:34:07;;;;;;;6.50;3.33;;;6.20;22.60;;;;;;7378096;19;20844;-74
2023/01/04 08:36:44;;;;;;;7.78;3.53;;;6.10;21.80;;;;;;7357734;19;20007;-74
2023/01/04 08:39:14;;;;;;;6.43;3.92;;;6.30;22.30;;;;;;7355181;19;20544;-74
2023/01/04 08:41:53;;;;;;;4.97;3.88;;;6.30;22.20;;;;;;7359324;19;20078;-74
2023/01/04 08:44:33;;;;;;;5.65;4.15;;;6.30;22.40;;;;;;7358822;19;20512;-74
2023/01/04 08:47:03;;;;;;;6.05;4.35;;;6.30;23.20;;;;;;7354019;19;20011;-73
2023/01/04 08:49:34;;;;;;;10.27;3.90;;;6.30;22.50;;;;;;7356155;19;20045;-74
2023/01/04 08:52:03;;;;;;;6.60;3.33;;;6.30;22.40;;;;;;7384582;19;20032;-74
2023/01/04 08:54:34;;;;;;;5.95;4.00;;;6.40;22.20;;;;;;7365166;19;20017;-74
2023/01/04 08:57:07;;;;;;;22.83;11.48;;;6.30;22.00;;;;;;7360501;19;20501;-74
2023/01/04 08:59:36;;;;;;;5.20;3.40;;;6.30;22.90;;;;;;7362723;19;20081;-74
2023/01/04 09:02:21;;;;;;;6.35;3.50;;;6.40;22.60;;;;;;7364775;19;20494;-76
2023/01/04 09:04:52;;;;;;;3.88;2.60;;;6.40;20.80;;;;;;7366729;19;20603;-76
2023/01/04 09:07:22;;;;;;;2.72;2.13;;;6.60;18.50;;;;;;7361030;19;20395;-74
2023/01/04 09:09:52;;;;;;;5.60;1.27;;;6.70;16.00;;;;;;7383393;19;20026;-75
2023/01/04 09:12:25;;;;;;;3.13;1.10;;;6.90;13.80;;;;;;7362295;19;20018;-74
2023/01/04 09:14:55;;;;;;;0.95;0.70;;;7.10;11.20;;;;;;7364096;19;20742;-75
2023/01/04 09:17:25;;;;;;;1.60;0.88;;;7.20;6.60;;;;;;7360440;19;20007;-75
2023/01/04 09:19:55;;;;;;;0.98;0.60;;;7.30;4.90;;;;;;7361774;19;20029;-76
2023/01/04 09:22:25;;;;;;;1.92;0.68;;;7.50;3.00;;;;;;7362796;19;20017;-76
2023/01/04 09:24:55;;;;;;;1.40;0.70;;;7.50;1.30;;;;;;7387325;19;20022;-75
2023/01/04 09:27:28;;;;;;;1.45;0.93;;;7.60;1.00;;;;;;7359750;19;20074;-76
2023/01/04 09:29:57;;;;;;;2.13;0.57;;;7.70;1.00;;;;;;7361585;19;20010;-75
2023/01/04 09:32:28;;;;;;;2.65;0.82;;;7.70;1.00;;;;;;7363026;19;20010;-75
2023/01/04 09:34:57;;;;;;;2.50;0.80;;;7.70;1.00;;;;;;7366088;19;20010;-75
2023/01/04 09:37:27;;;;;;;3.67;0.80;;;7.80;1.00;;;;;;7360349;19;20513;-75
2023/01/04 09:39:57;;;;;;;2.20;0.95;;;7.80;1.00;;;;;;7383569;19;20014;-75
2023/01/04 09:42:33;;;;;;;2.13;0.85;;;7.80;1.00;;;;;;7361802;19;20010;-76
2023/01/04 09:45:17;;;;;;;1.95;0.70;;;7.90;1.00;;;;;;7364124;19;20363;-76
2023/01/04 09:47:59;;;;;;;1.85;1.00;;;7.90;1.00;;;;;;7360529;19;20463;-76
2023/01/04 09:50:33;;;;;;;1.95;0.77;;;7.90;1.00;;;;;;7362035;19;20090;-76
2023/01/04 09:53:11;;;;;;;6.68;0.68;;;7.90;1.00;;;;;;7361523;19;20017;-76
2023/01/04 09:55:46;;;;;;;1.05;0.70;;;7.90;1.00;;;;;;7361949;19;20014;-76
2023/01/04 09:58:27;;;;;;;2.10;0.80;;;8.00;1.00;;;;;;7359643;19;20358;-76
2023/01/04 10:01:03;;;;;;;2.42;1.15;;;8.00;1.00;;;;;;7385751;19;20014;-75
2023/01/04 10:03:37;;;;;;;3.33;0.90;;;8.00;1.00;;;;;;7359376;19;20010;-75
2023/01/04 10:06:11;;;;;;;2.67;1.15;;;8.00;1.00;;;;;;7360563;19;20086;-76
2023/01/04 10:08:43;;;;;;;2.35;0.93;;;8.00;1.00;;;;;;7359195;19;20494;-75
2023/01/04 10:11:24;;;;;;;4.57;1.05;;;8.00;1.00;;;;;;7363261;19;20017;-75
2023/01/04 10:14:23;;;;;;;3.00;0.70;;;8.10;1.00;;;;;;7360802;19;20027;-75
2023/01/04 10:17:03;;;;;;;1.83;0.80;;;8.20;1.00;;;;;;7359892;19;20021;-75
2023/01/04 10:19:56;;;;;;;5.28;1.35;;;8.20;1.00;;;;;;7360950;19;20035;-76
2023/01/04 10:22:56;;;;;;;2.13;1.05;;;8.30;1.00;;;;;;7360105;19;20014;-76
2023/01/04 10:25:32;;;;;;;2.75;1.08;;;8.30;1.00;;;;;;7363357;19;20031;-77
2023/01/04 10:28:14;;;;;;;2.25;0.85;;;8.30;1.00;;;;;;7381581;19;20040;-76
2023/01/04 10:30:56;;;;;;;1.30;0.70;;;8.40;1.00;;;;;;7363327;19;20011;-76
2023/01/04 10:33:31;;;;;;;2.00;0.90;;;8.40;1.00;;;;;;7360446;19;20006;-76
2023/01/04 10:36:02;;;;;;;4.93;1.10;;;8.40;1.00;;;;;;7360873;19;20079;-76
2023/01/04 10:38:38;;;;;;;2.33;1.08;;;8.50;1.00;;;;;;7357119;19;20727;-75
2023/01/04 10:41:12;;;;;;;2.50;1.17;;;8.50;1.00;;;;;;7362750;19;20015;-75
2023/01/04 10:43:50;;;;;;;1.40;0.70;;;8.60;1.00;;;;;;7359774;19;20086;-75
2023/01/04 10:46:48;;;;;;;3.63;1.10;;;8.70;1.00;;;;;;7360521;19;20010;-76
2023/01/04 10:49:24;;;;;;;3.17;0.98;;;8.80;1.00;;;;;;7357726;19;20089;-75
2023/01/04 10:51:59;;;;;;;3.78;1.48;;;8.80;1.00;;;;;;7384226;19;20085;-76
2023/01/04 10:54:35;;;;;;;3.58;1.42;;;8.90;1.00;;;;;;7360355;19;20503;-75
2023/01/04 10:57:10;;;;;;;2.80;1.10;;;8.90;1.00;;;;;;7357027;19;20013;-75
2023/01/04 10:59:45;;;;;;;2.35;1.50;;;9.00;1.00;;;;;;7359584;19;20419;-76
2023/01/04 11:02:24;;;;;;;3.47;0.95;;;9.10;1.00;;;;;;7359434;19;20731;-76
2023/01/04 11:05:01;;;;;;;1.60;0.85;;;9.10;1.00;;;;;;7361670;19;20025;-76
2023/01/04 11:07:38;;;;;;;3.38;1.50;;;9.20;1.00;;;;;;7357045;19;20363;-76
2023/01/04 11:10:12;;;;;;;1.02;0.68;;;9.30;1.00;;;;;;7359545;19;20094;-77
2023/01/04 11:12:42;;;;;;;3.47;0.90;;;9.30;1.00;;;;;;7382237;19;20010;-76
2023/01/04 11:15:12;;;;;;;2.80;0.85;;;9.30;1.00;;;;;;7360542;19;20102;-76
2023/01/04 11:17:46;;;;;;;2.30;0.90;;;9.30;1.00;;;;;;7357825;19;20107;-76
2023/01/04 11:20:16;;;;;;;1.70;0.93;;;9.30;1.00;;;;;;7360143;19;20437;-75
2023/01/04 11:22:52;;;;;;;1.40;0.70;;;9.30;1.00;;;;;;7359323;19;20235;-76
2023/01/04 11:25:24;;;;;;;1.52;0.60;;;9.30;1.00;;;;;;7360678;19;20533;-76
2023/01/04 11:28:14;;;;;;;1.77;0.75;;;9.40;1.00;;;;;;7380382;19;20002;-76
2023/01/04 11:30:55;;;;;;;1.48;0.77;;;9.40;1.00;;;;;;7359465;19;20011;-76
2023/01/04 11:33:27;;;;;;;2.13;0.65;;;9.40;1.00;;;;;;7360312;19;20470;-76
2023/01/04 11:36:00;;;;;;;1.73;1.10;;;9.30;1.00;;;;;;7358796;19;20480;-76
2023/01/04 11:38:31;;;;;;;2.72;0.50;;;9.40;1.00;;;;;;7356254;19;20028;-76
2023/01/04 11:41:04;;;;;;;1.63;0.73;;;9.40;1.00;;;;;;7361587;19;20014;-76
2023/01/04 11:43:35;;;;;;;2.80;0.50;;;9.40;1.00;;;;;;7358438;19;20022;-75
2023/01/04 11:46:07;;;;;;;2.95;0.88;;;9.30;1.00;;;;;;7380804;19;20082;-75
2023/01/04 11:48:45;;;;;;;3.80;0.93;;;9.40;1.00;;;;;;7362559;19;20039;-76
2023/01/04 11:51:22;;;;;;;2.88;0.70;;;9.30;1.00;;;;;;7363578;19;20018;-74
2023/01/04 11:54:00;;;;;;;2.15;0.60;;;9.30;1.00;;;;;;7359423;19;20014;-76
2023/01/04 11:56:33;;;;;;;2.22;0.88;;;9.40;1.00;;;;;;7360783;19;20022;-76
2023/01/04 11:59:16;;;;;;;1.73;0.75;;;9.40;1.00;;;;;;7357157;19;20360;-76
2023/01/04 12:02:18;;;;;;;1.90;0.70;;;9.40;1.00;;;;;;7361825;19;20408;-76
2023/01/04 12:05:20;;;;;;;1.25;0.70;;;9.40;1.00;;;;;;7361268;19;20061;-76
2023/01/04 12:07:59;;;;;;;2.85;0.90;;;9.40;1.00;;;;;;7360682;19;20506;-76
2023/01/04 12:10:33;;;;;;;2.20;0.93;;;9.40;1.00;;;;;;7358775;19;20082;-77
2023/01/04 12:13:03;;;;;;;1.90;0.88;;;9.40;1.00;;;;;;7381505;19;20089;-76
2023/01/04 12:15:40;;;;;;;2.63;0.90;;;9.40;1.00;;;;;;7360939;19;20022;-77
2023/01/04 12:18:18;;;;;;;5.28;0.80;;;9.40;1.00;;;;;;7360169;19;20006;-76
2023/01/04 12:20:50;;;;;;;8.13;3.88;;;9.40;1.00;;;;;;7359139;19;20033;-76
2023/01/04 12:23:21;;;;;;;3.35;1.05;;;9.40;1.00;;;;;;7358496;19;20007;-76
2023/01/04 12:25:53;;;;;;;1.90;0.93;;;9.50;1.00;;;;;;7357412;19;20489;-75
2023/01/04 12:28:38;;;;;;;1.38;0.75;;;9.40;1.00;;;;;;7362438;19;20478;-76
2023/01/04 12:31:33;;;;;;;1.83;1.02;;;9.40;1.00;;;;;;7364407;19;20017;-78
2023/01/04 12:34:33;;;;;;;1.85;0.90;;;9.50;1.00;;;;;;7385399;19;20394;-75
2023/01/04 12:37:07;;;;;;;2.40;0.85;;;9.50;1.00;;;;;;7261088;19;2004343;-76
2023/01/04 12:39:43;;;;;;;0.95;0.80;;;9.40;1.00;;;;;;7386480;19;20022;-77
2023/01/04 12:42:20;;;;;;;1.77;0.65;;;9.40;1.00;;;;;;7363107;19;20873;-76
2023/01/04 12:45:12;;;;;;;2.40;0.82;;;9.40;1.00;;;;;;7366483;19;20006;-76
2023/01/04 12:50:29;;;;;;;2.63;0.80;;;9.40;1.00;;;;;;7362449;19;20021;-76
2023/01/04 12:53:05;;;;;;;2.92;0.90;;;9.40;1.00;;;;;;7360375;19;20136;-76
2023/01/04 12:55:57;;;;;;;2.88;0.95;;;9.40;1.00;;;;;;7362354;19;20342;-76
2023/01/04 12:58:44;;;;;;;1.17;0.60;;;9.50;1.00;;;;;;7360630;19;20024;-76
2023/01/04 13:01:34;;;;;;;1.70;0.82;;;9.50;1.00;;;;;;7361319;19;20501;-75
2023/01/04 13:04:30;;;;;;;2.67;1.30;;;9.60;1.00;;;;;;7382033;19;20014;-74
2023/01/04 13:07:11;;;;;;;2.33;0.93;;;9.60;1.00;;;;;;7362621;19;20035;-76
2023/01/04 13:09:55;;;;;;;2.15;0.80;;;9.60;1.00;;;;;;7358960;19;20011;-75
2023/01/04 13:13:04;;;;;;;1.00;0.63;;;9.60;1.00;;;;;;7359600;19;20014;-75
2023/01/04 13:15:53;;;;;;;1.58;0.60;;;9.70;1.00;;;;;;7360250;19;20074;-75
2023/01/04 13:18:36;;;;;;;3.08;0.75;;;9.70;1.00;;;;;;7360696;19;20715;-75
2023/01/04 13:21:13;;;;;;;3.63;0.85;;;9.70;1.00;;;;;;7362026;19;20014;-75
2023/01/04 13:23:50;;;;;;;6.32;3.00;;;9.70;1.00;;;;;;7359918;19;20010;-75
2023/01/04 13:26:36;;;;;;;1.73;0.70;;;9.80;1.00;;;;;;7361480;19;20007;-75
2023/01/04 13:29:18;;;;;;;3.92;0.88;;;9.80;1.00;;;;;;7359624;19;20022;-76
2023/01/04 13:31:52;;;;;;;1.90;0.60;;;9.80;1.00;;;;;;7362485;19;20438;-75
2023/01/04 13:34:26;;;;;;;0.93;0.50;;;9.90;1.00;;;;;;7362569;19;20014;-75
2023/01/04 13:37:07;;;;;;;0.93;0.60;;;9.90;1.00;;;;;;7384260;19;20017;-78
2023/01/04 13:39:38;;;;;;;1.80;0.73;;;9.90;1.00;;;;;;7359596;19;20010;-74
2023/01/04 13:42:19;;;;;;;2.10;0.98;;;10.00;1.00;;;;;;7361681;19;20014;-74
2023/01/04 13:45:10;;;;;;;0.82;0.50;;;10.00;1.00;;;;;;7365491;19;20922;-78
2023/01/04 13:47:52;;;;;;;1.25;0.70;;;10.10;1.00;;;;;;7359691;19;20671;-79
2023/01/04 13:50:35;;;;;;;1.50;0.65;;;10.10;1.00;;;;;;7360948;19;20006;-78
2023/01/04 13:53:06;;;;;;;3.40;0.75;;;10.20;1.00;;;;;;7361773;19;20393;-78
2023/01/04 13:55:39;;;;;;;2.58;0.57;;;10.20;1.00;;;;;;7361756;19;20121;-78
2023/01/04 13:58:19;;;;;;;2.40;0.70;;;10.30;1.00;;;;;;7358670;19;20014;-78
2023/01/04 14:00:53;;;;;;;1.52;0.70;;;10.30;1.00;;;;;;7385295;19;20017;-79
2023/01/04 14:03:30;;;;;;;1.98;0.60;;;10.30;1.00;;;;;;7359934;19;20624;-79
2023/01/04 14:06:16;;;;;;;3.85;0.75;;;10.30;1.00;;;;;;7360110;19;20805;-81
2023/01/04 14:08:52;;;;;;;3.40;0.98;;;10.30;1.00;;;;;;7360072;19;20466;-79
2023/01/04 14:14:22;;;;;;;0.98;0.60;;;10.30;1.00;;;;;;7363645;19;20010;-80
2023/01/04 14:16:53;;;;;;;2.27;1.07;;;10.30;1.00;;;;;;7361733;19;20007;-80
2023/01/04 14:19:41;;;;;;;2.08;1.00;;;10.30;1.00;;;;;;7362799;19;20014;-80
2023/01/04 14:22:43;;;;;;;3.60;0.90;;;10.30;1.00;;;;;;7362886;19;20007;-78
2023/01/04 14:25:55;;;;;;;1.15;0.75;;;10.40;1.00;;;;;;7366063;19;20015;-78